sensor_id;sensor_type;location;lat;lon;timestamp;P1;durP1;ratioP1;P2;durP2;ratioP2
8139;SDS011;4111;50.972;7.072;2023-11-19T00:00:26;2.43;;;1.50;;
8139;SDS011;4111;50.972;7.072;2023-11-19T00:03:03;0.90;;;0.90;;
8139;SDS011;4111;50.972;7.072;2023-11-19T00:05:29;1.03;;;1.00;;
8139;SDS011;4111;50.972;7.072;2023-11-19T00:08:02;2.10;;;1.00;;
8139;SDS011;4111;50.972;7.072;2023-11-19T00:10:37;1.00;;;1.00;;
8139;SDS011;4111;50.972;7.072;2023-11-19T00:16:30;0.90;;;0.90;;
8139;SDS011;4111;50.972;7.072;2023-11-19T00:19:00;1.10;;;1.10;;
8139;SDS011;4111;50.972;7.072;2023-11-19T00:21:32;2.80;;;1.10;;
8139;SDS011;4111;50.972;7.072;2023-11-19T00:23:59;3.43;;;1.20;;
8139;SDS011;4111;50.972;7.072;2023-11-19T00:26:28;1.37;;;1.20;;
8139;SDS011;4111;50.972;7.072;2023-11-19T00:28:55;1.43;;;0.97;;
8139;SDS011;4111;50.972;7.072;2023-11-19T00:31:27;1.70;;;1.03;;
8139;SDS011;4111;50.972;7.072;2023-11-19T00:34:18;0.93;;;0.90;;
8139;SDS011;4111;50.972;7.072;2023-11-19T00:37:00;1.03;;;1.03;;
8139;SDS011;4111;50.972;7.072;2023-11-19T00:39:27;4.63;;;1.20;;
8139;SDS011;4111;50.972;7.072;2023-11-19T00:41:56;1.10;;;1.00;;
8139;SDS011;4111;50.972;7.072;2023-11-19T00:44:22;1.00;;;1.00;;
8139;SDS011;4111;50.972;7.072;2023-11-19T00:46:55;1.23;;;1.13;;
8139;SDS011;4111;50.972;7.072;2023-11-19T00:52:17;1.13;;;0.80;;
8139;SDS011;4111;50.972;7.072;2023-11-19T00:54:47;1.93;;;0.90;;
8139;SDS011;4111;50.972;7.072;2023-11-19T00:57:27;0.80;;;0.80;;
8139;SDS011;4111;50.972;7.072;2023-11-19T00:59:57;0.80;;;0.80;;
8139;SDS011;4111;50.972;7.072;2023-11-19T01:05:18;0.90;;;0.90;;
8139;SDS011;4111;50.972;7.072;2023-11-19T01:07:57;0.70;;;0.70;;
8139;SDS011;4111;50.972;7.072;2023-11-19T01:10:35;0.97;;;0.97;;
8139;SDS011;4111;50.972;7.072;2023-11-19T01:16:32;2.07;;;1.00;;
8139;SDS011;4111;50.972;7.072;2023-11-19T01:18:59;1.17;;;0.90;;
8139;SDS011;4111;50.972;7.072;2023-11-19T01:21:45;1.00;;;1.00;;
8139;SDS011;4111;50.972;7.072;2023-11-19T01:24:19;2.43;;;1.17;;
8139;SDS011;4111;50.972;7.072;2023-11-19T01:27:02;2.70;;;1.20;;
8139;SDS011;4111;50.972;7.072;2023-11-19T01:29:28;2.03;;;1.27;;
8139;SDS011;4111;50.972;7.072;2023-11-19T01:32:04;3.17;;;1.10;;
8139;SDS011;4111;50.972;7.072;2023-11-19T01:34:34;2.73;;;1.10;;
8139;SDS011;4111;50.972;7.072;2023-11-19T01:37:05;3.70;;;1.10;;
8139;SDS011;4111;50.972;7.072;2023-11-19T01:39:34;1.10;;;1.07;;
8139;SDS011;4111;50.972;7.072;2023-11-19T01:42:01;1.33;;;1.10;;
8139;SDS011;4111;50.972;7.072;2023-11-19T01:44:27;1.77;;;1.37;;
8139;SDS011;4111;50.972;7.072;2023-11-19T01:46:54;2.77;;;1.20;;
8139;SDS011;4111;50.972;7.072;2023-11-19T01:49:20;3.23;;;1.50;;
8139;SDS011;4111;50.972;7.072;2023-11-19T01:51:47;1.93;;;1.30;;
8139;SDS011;4111;50.972;7.072;2023-11-19T01:54:14;1.10;;;1.00;;
8139;SDS011;4111;50.972;7.072;2023-11-19T01:56:41;2.10;;;1.90;;
8139;SDS011;4111;50.972;7.072;2023-11-19T01:59:11;1.77;;;1.40;;
8139;SDS011;4111;50.972;7.072;2023-11-19T02:01:40;2.50;;;1.37;;
8139;SDS011;4111;50.972;7.072;2023-11-19T02:04:28;3.00;;;1.47;;
8139;SDS011;4111;50.972;7.072;2023-11-19T02:07:06;1.23;;;1.23;;
8139;SDS011;4111;50.972;7.072;2023-11-19T02:09:34;1.87;;;1.40;;
8139;SDS011;4111;50.972;7.072;2023-11-19T02:12:00;2.70;;;1.50;;
8139;SDS011;4111;50.972;7.072;2023-11-19T02:14:27;3.80;;;1.40;;
8139;SDS011;4111;50.972;7.072;2023-11-19T02:16:54;2.33;;;1.20;;
8139;SDS011;4111;50.972;7.072;2023-11-19T02:19:21;1.70;;;1.20;;
8139;SDS011;4111;50.972;7.072;2023-11-19T02:21:47;1.40;;;1.30;;
8139;SDS011;4111;50.972;7.072;2023-11-19T02:24:14;0.97;;;0.90;;
8139;SDS011;4111;50.972;7.072;2023-11-19T02:26:50;2.20;;;1.10;;
8139;SDS011;4111;50.972;7.072;2023-11-19T02:29:25;1.47;;;1.30;;
8139;SDS011;4111;50.972;7.072;2023-11-19T02:31:54;3.37;;;1.57;;
8139;SDS011;4111;50.972;7.072;2023-11-19T02:34:21;1.23;;;1.20;;
8139;SDS011;4111;50.972;7.072;2023-11-19T02:36:56;1.60;;;1.30;;
8139;SDS011;4111;50.972;7.072;2023-11-19T02:39:31;3.10;;;1.60;;
8139;SDS011;4111;50.972;7.072;2023-11-19T02:42:20;1.50;;;1.40;;
8139;SDS011;4111;50.972;7.072;2023-11-19T02:44:50;3.90;;;1.83;;
8139;SDS011;4111;50.972;7.072;2023-11-19T02:47:16;1.83;;;1.30;;
8139;SDS011;4111;50.972;7.072;2023-11-19T02:49:46;3.73;;;1.60;;
8139;SDS011;4111;50.972;7.072;2023-11-19T02:52:12;2.17;;;1.27;;
8139;SDS011;4111;50.972;7.072;2023-11-19T02:54:42;4.67;;;1.60;;
8139;SDS011;4111;50.972;7.072;2023-11-19T02:57:17;2.20;;;1.57;;
8139;SDS011;4111;50.972;7.072;2023-11-19T03:00:09;3.67;;;1.40;;
8139;SDS011;4111;50.972;7.072;2023-11-19T03:02:41;3.57;;;1.80;;
8139;SDS011;4111;50.972;7.072;2023-11-19T03:05:29;3.67;;;1.80;;
8139;SDS011;4111;50.972;7.072;2023-11-19T03:07:59;4.63;;;1.90;;
8139;SDS011;4111;50.972;7.072;2023-11-19T03:10:30;4.80;;;1.93;;
8139;SDS011;4111;50.972;7.072;2023-11-19T03:12:57;5.80;;;2.37;;
8139;SDS011;4111;50.972;7.072;2023-11-19T03:15:32;3.20;;;1.57;;
8139;SDS011;4111;50.972;7.072;2023-11-19T03:18:02;3.90;;;1.60;;
8139;SDS011;4111;50.972;7.072;2023-11-19T03:20:31;5.93;;;1.73;;
8139;SDS011;4111;50.972;7.072;2023-11-19T03:23:01;3.73;;;2.03;;
8139;SDS011;4111;50.972;7.072;2023-11-19T03:25:27;5.13;;;2.07;;
8139;SDS011;4111;50.972;7.072;2023-11-19T03:27:59;2.20;;;1.60;;
8139;SDS011;4111;50.972;7.072;2023-11-19T03:30:33;6.47;;;1.80;;
8139;SDS011;4111;50.972;7.072;2023-11-19T03:33:03;5.10;;;1.90;;
8139;SDS011;4111;50.972;7.072;2023-11-19T03:35:30;4.40;;;1.70;;
8139;SDS011;4111;50.972;7.072;2023-11-19T03:37:56;4.60;;;1.70;;
8139;SDS011;4111;50.972;7.072;2023-11-19T03:40:28;5.30;;;1.90;;
8139;SDS011;4111;50.972;7.072;2023-11-19T03:43:01;5.67;;;2.13;;
8139;SDS011;4111;50.972;7.072;2023-11-19T03:45:27;6.00;;;1.80;;
8139;SDS011;4111;50.972;7.072;2023-11-19T03:48:06;9.70;;;2.30;;
8139;SDS011;4111;50.972;7.072;2023-11-19T03:50:47;12.50;;;2.50;;
8139;SDS011;4111;50.972;7.072;2023-11-19T03:53:14;4.73;;;1.93;;
8139;SDS011;4111;50.972;7.072;2023-11-19T03:55:43;6.83;;;2.43;;
8139;SDS011;4111;50.972;7.072;2023-11-19T03:59:11;7.60;;;2.10;;
8139;SDS011;4111;50.972;7.072;2023-11-19T04:01:21;11.10;;;2.47;;
8139;SDS011;4111;50.972;7.072;2023-11-19T04:03:50;10.93;;;2.57;;
8139;SDS011;4111;50.972;7.072;2023-11-19T04:06:17;9.87;;;2.63;;
8139;SDS011;4111;50.972;7.072;2023-11-19T04:08:50;11.20;;;2.33;;
8139;SDS011;4111;50.972;7.072;2023-11-19T04:11:26;9.37;;;2.60;;
8139;SDS011;4111;50.972;7.072;2023-11-19T04:13:57;12.03;;;2.57;;
8139;SDS011;4111;50.972;7.072;2023-11-19T04:16:26;11.57;;;2.77;;
8139;SDS011;4111;50.972;7.072;2023-11-19T04:19:05;17.87;;;3.53;;
8139;SDS011;4111;50.972;7.072;2023-11-19T04:21:35;14.83;;;2.83;;
8139;SDS011;4111;50.972;7.072;2023-11-19T04:24:23;15.87;;;3.03;;
8139;SDS011;4111;50.972;7.072;2023-11-19T04:26:52;9.53;;;2.53;;
8139;SDS011;4111;50.972;7.072;2023-11-19T04:29:19;12.20;;;2.90;;
8139;SDS011;4111;50.972;7.072;2023-11-19T04:31:53;9.50;;;2.90;;
8139;SDS011;4111;50.972;7.072;2023-11-19T04:34:23;13.43;;;2.57;;
8139;SDS011;4111;50.972;7.072;2023-11-19T04:37:16;10.23;;;2.40;;
8139;SDS011;4111;50.972;7.072;2023-11-19T04:39:56;11.30;;;2.67;;
8139;SDS011;4111;50.972;7.072;2023-11-19T04:42:32;11.33;;;2.60;;
8139;SDS011;4111;50.972;7.072;2023-11-19T04:45:07;12.60;;;3.07;;
8139;SDS011;4111;50.972;7.072;2023-11-19T04:47:37;7.40;;;2.60;;
8139;SDS011;4111;50.972;7.072;2023-11-19T04:50:03;12.43;;;2.87;;
8139;SDS011;4111;50.972;7.072;2023-11-19T04:52:30;11.67;;;3.97;;
8139;SDS011;4111;50.972;7.072;2023-11-19T04:55:04;10.50;;;2.40;;
8139;SDS011;4111;50.972;7.072;2023-11-19T04:57:33;15.07;;;3.40;;
8139;SDS011;4111;50.972;7.072;2023-11-19T05:00:04;11.73;;;3.07;;
8139;SDS011;4111;50.972;7.072;2023-11-19T05:02:42;13.97;;;3.27;;
8139;SDS011;4111;50.972;7.072;2023-11-19T05:05:16;14.73;;;3.20;;
8139;SDS011;4111;50.972;7.072;2023-11-19T05:08:00;11.53;;;3.03;;
8139;SDS011;4111;50.972;7.072;2023-11-19T05:10:30;11.33;;;3.17;;
8139;SDS011;4111;50.972;7.072;2023-11-19T05:12:58;17.30;;;3.73;;
8139;SDS011;4111;50.972;7.072;2023-11-19T05:15:30;14.10;;;3.83;;
8139;SDS011;4111;50.972;7.072;2023-11-19T05:18:04;12.27;;;3.23;;
8139;SDS011;4111;50.972;7.072;2023-11-19T05:20:31;13.97;;;3.73;;
8139;SDS011;4111;50.972;7.072;2023-11-19T05:23:14;10.83;;;2.83;;
8139;SDS011;4111;50.972;7.072;2023-11-19T05:26:04;12.47;;;3.43;;
8139;SDS011;4111;50.972;7.072;2023-11-19T05:28:33;12.43;;;2.80;;
8139;SDS011;4111;50.972;7.072;2023-11-19T05:31:00;10.93;;;3.00;;
8139;SDS011;4111;50.972;7.072;2023-11-19T05:33:27;15.03;;;3.43;;
8139;SDS011;4111;50.972;7.072;2023-11-19T05:35:53;10.37;;;3.10;;
8139;SDS011;4111;50.972;7.072;2023-11-19T05:38:20;13.03;;;3.10;;
8139;SDS011;4111;50.972;7.072;2023-11-19T05:40:47;12.43;;;3.40;;
8139;SDS011;4111;50.972;7.072;2023-11-19T05:43:23;14.40;;;3.47;;
8139;SDS011;4111;50.972;7.072;2023-11-19T05:46:20;16.23;;;4.00;;
8139;SDS011;4111;50.972;7.072;2023-11-19T05:49:10;14.00;;;3.40;;
8139;SDS011;4111;50.972;7.072;2023-11-19T05:52:00;17.10;;;3.50;;
8139;SDS011;4111;50.972;7.072;2023-11-19T05:54:29;13.83;;;4.30;;
8139;SDS011;4111;50.972;7.072;2023-11-19T05:56:57;12.90;;;3.90;;
8139;SDS011;4111;50.972;7.072;2023-11-19T05:59:23;16.67;;;4.10;;
8139;SDS011;4111;50.972;7.072;2023-11-19T06:01:53;21.20;;;4.50;;
8139;SDS011;4111;50.972;7.072;2023-11-19T06:04:21;14.37;;;3.57;;
8139;SDS011;4111;50.972;7.072;2023-11-19T06:09:37;15.97;;;3.70;;
8139;SDS011;4111;50.972;7.072;2023-11-19T06:12:04;13.33;;;3.40;;
8139;SDS011;4111;50.972;7.072;2023-11-19T06:14:32;16.03;;;4.27;;
8139;SDS011;4111;50.972;7.072;2023-11-19T06:16:58;19.53;;;4.10;;
8139;SDS011;4111;50.972;7.072;2023-11-19T06:19:26;18.67;;;4.40;;
8139;SDS011;4111;50.972;7.072;2023-11-19T06:21:56;15.60;;;3.60;;
8139;SDS011;4111;50.972;7.072;2023-11-19T06:24:22;15.80;;;3.90;;
8139;SDS011;4111;50.972;7.072;2023-11-19T06:26:49;16.13;;;3.80;;
8139;SDS011;4111;50.972;7.072;2023-11-19T06:29:15;14.43;;;3.80;;
8139;SDS011;4111;50.972;7.072;2023-11-19T06:31:45;25.03;;;4.30;;
8139;SDS011;4111;50.972;7.072;2023-11-19T06:34:15;19.90;;;4.20;;
8139;SDS011;4111;50.972;7.072;2023-11-19T06:36:59;17.27;;;3.90;;
8139;SDS011;4111;50.972;7.072;2023-11-19T06:39:26;20.80;;;4.57;;
8139;SDS011;4111;50.972;7.072;2023-11-19T06:41:52;15.77;;;4.43;;
8139;SDS011;4111;50.972;7.072;2023-11-19T06:44:18;19.30;;;4.00;;
8139;SDS011;4111;50.972;7.072;2023-11-19T06:46:59;17.40;;;4.67;;
8139;SDS011;4111;50.972;7.072;2023-11-19T06:49:25;24.90;;;4.53;;
8139;SDS011;4111;50.972;7.072;2023-11-19T06:51:52;15.70;;;3.90;;
8139;SDS011;4111;50.972;7.072;2023-11-19T06:54:18;19.73;;;3.67;;
8139;SDS011;4111;50.972;7.072;2023-11-19T06:56:44;23.83;;;4.40;;
8139;SDS011;4111;50.972;7.072;2023-11-19T06:59:13;20.93;;;4.23;;
8139;SDS011;4111;50.972;7.072;2023-11-19T07:01:40;18.60;;;3.80;;
8139;SDS011;4111;50.972;7.072;2023-11-19T07:04:12;21.10;;;4.07;;
8139;SDS011;4111;50.972;7.072;2023-11-19T07:06:38;18.43;;;4.40;;
8139;SDS011;4111;50.972;7.072;2023-11-19T07:09:08;16.77;;;4.17;;
8139;SDS011;4111;50.972;7.072;2023-11-19T07:11:38;22.10;;;4.00;;
8139;SDS011;4111;50.972;7.072;2023-11-19T07:14:07;18.17;;;4.93;;
8139;SDS011;4111;50.972;7.072;2023-11-19T07:16:34;14.90;;;4.10;;
8139;SDS011;4111;50.972;7.072;2023-11-19T07:19:03;17.63;;;4.97;;
8139;SDS011;4111;50.972;7.072;2023-11-19T07:21:31;15.10;;;3.70;;
8139;SDS011;4111;50.972;7.072;2023-11-19T07:23:59;16.17;;;4.53;;
8139;SDS011;4111;50.972;7.072;2023-11-19T07:26:26;18.97;;;4.30;;
8139;SDS011;4111;50.972;7.072;2023-11-19T07:28:53;14.13;;;3.83;;
8139;SDS011;4111;50.972;7.072;2023-11-19T07:31:21;19.00;;;5.20;;
8139;SDS011;4111;50.972;7.072;2023-11-19T07:33:48;26.53;;;4.80;;
8139;SDS011;4111;50.972;7.072;2023-11-19T07:36:15;22.23;;;4.77;;
8139;SDS011;4111;50.972;7.072;2023-11-19T07:38:42;18.30;;;3.93;;
8139;SDS011;4111;50.972;7.072;2023-11-19T07:41:11;16.80;;;3.63;;
8139;SDS011;4111;50.972;7.072;2023-11-19T07:43:39;17.83;;;4.57;;
8139;SDS011;4111;50.972;7.072;2023-11-19T07:46:15;18.33;;;4.50;;
8139;SDS011;4111;50.972;7.072;2023-11-19T07:49:41;19.60;;;4.70;;
8139;SDS011;4111;50.972;7.072;2023-11-19T07:52:19;16.80;;;5.40;;
8139;SDS011;4111;50.972;7.072;2023-11-19T07:55:12;18.07;;;4.60;;
8139;SDS011;4111;50.972;7.072;2023-11-19T07:57:39;14.17;;;3.47;;
8139;SDS011;4111;50.972;7.072;2023-11-19T08:00:05;21.97;;;4.70;;
8139;SDS011;4111;50.972;7.072;2023-11-19T08:02:35;25.70;;;5.50;;
8139;SDS011;4111;50.972;7.072;2023-11-19T08:05:01;18.30;;;6.83;;
8139;SDS011;4111;50.972;7.072;2023-11-19T08:07:28;22.87;;;6.47;;
8139;SDS011;4111;50.972;7.072;2023-11-19T08:09:54;23.17;;;9.53;;
8139;SDS011;4111;50.972;7.072;2023-11-19T08:12:21;17.27;;;5.40;;
8139;SDS011;4111;50.972;7.072;2023-11-19T08:15:03;24.60;;;5.40;;
8139;SDS011;4111;50.972;7.072;2023-11-19T08:17:31;19.03;;;4.73;;
8139;SDS011;4111;50.972;7.072;2023-11-19T08:20:05;23.80;;;5.47;;
8139;SDS011;4111;50.972;7.072;2023-11-19T08:23:02;19.70;;;5.27;;
8139;SDS011;4111;50.972;7.072;2023-11-19T08:25:33;13.93;;;4.00;;
8139;SDS011;4111;50.972;7.072;2023-11-19T08:28:02;18.80;;;4.33;;
8139;SDS011;4111;50.972;7.072;2023-11-19T08:30:29;20.77;;;4.93;;
8139;SDS011;4111;50.972;7.072;2023-11-19T08:32:58;22.97;;;4.20;;
8139;SDS011;4111;50.972;7.072;2023-11-19T08:35:29;16.57;;;4.10;;
8139;SDS011;4111;50.972;7.072;2023-11-19T08:37:56;19.87;;;4.50;;
8139;SDS011;4111;50.972;7.072;2023-11-19T08:40:23;12.73;;;4.03;;
8139;SDS011;4111;50.972;7.072;2023-11-19T08:42:49;16.43;;;4.03;;
8139;SDS011;4111;50.972;7.072;2023-11-19T08:45:16;16.67;;;4.23;;
8139;SDS011;4111;50.972;7.072;2023-11-19T08:47:42;17.40;;;4.10;;
8139;SDS011;4111;50.972;7.072;2023-11-19T08:50:09;15.37;;;4.17;;
8139;SDS011;4111;50.972;7.072;2023-11-19T08:52:35;14.23;;;3.87;;
8139;SDS011;4111;50.972;7.072;2023-11-19T08:55:02;17.20;;;4.87;;
8139;SDS011;4111;50.972;7.072;2023-11-19T08:57:31;24.10;;;5.60;;
8139;SDS011;4111;50.972;7.072;2023-11-19T08:59:58;18.17;;;4.50;;
8139;SDS011;4111;50.972;7.072;2023-11-19T09:02:25;19.37;;;5.10;;
8139;SDS011;4111;50.972;7.072;2023-11-19T09:04:52;17.47;;;5.13;;
8139;SDS011;4111;50.972;7.072;2023-11-19T09:07:20;17.50;;;4.97;;
8139;SDS011;4111;50.972;7.072;2023-11-19T09:09:47;18.67;;;4.80;;
8139;SDS011;4111;50.972;7.072;2023-11-19T09:12:17;14.40;;;3.97;;
8139;SDS011;4111;50.972;7.072;2023-11-19T09:14:43;19.77;;;4.47;;
8139;SDS011;4111;50.972;7.072;2023-11-19T09:17:13;17.20;;;5.10;;
8139;SDS011;4111;50.972;7.072;2023-11-19T09:19:45;22.53;;;4.77;;
8139;SDS011;4111;50.972;7.072;2023-11-19T09:22:11;23.50;;;5.30;;
8139;SDS011;4111;50.972;7.072;2023-11-19T09:24:38;13.80;;;4.70;;
8139;SDS011;4111;50.972;7.072;2023-11-19T09:27:04;18.37;;;5.10;;
8139;SDS011;4111;50.972;7.072;2023-11-19T09:29:31;19.10;;;4.83;;
8139;SDS011;4111;50.972;7.072;2023-11-19T09:31:58;17.67;;;4.30;;
8139;SDS011;4111;50.972;7.072;2023-11-19T09:34:25;16.47;;;4.33;;
8139;SDS011;4111;50.972;7.072;2023-11-19T09:36:51;17.30;;;4.30;;
8139;SDS011;4111;50.972;7.072;2023-11-19T09:39:18;17.40;;;4.40;;
8139;SDS011;4111;50.972;7.072;2023-11-19T09:41:44;16.00;;;4.97;;
8139;SDS011;4111;50.972;7.072;2023-11-19T09:44:11;18.53;;;4.40;;
8139;SDS011;4111;50.972;7.072;2023-11-19T09:46:39;20.00;;;4.53;;
8139;SDS011;4111;50.972;7.072;2023-11-19T09:49:08;16.60;;;5.10;;
8139;SDS011;4111;50.972;7.072;2023-11-19T09:51:35;14.63;;;4.00;;
8139;SDS011;4111;50.972;7.072;2023-11-19T09:54:02;20.97;;;5.43;;
8139;SDS011;4111;50.972;7.072;2023-11-19T09:56:28;17.57;;;4.77;;
8139;SDS011;4111;50.972;7.072;2023-11-19T09:58:56;22.10;;;5.37;;
8139;SDS011;4111;50.972;7.072;2023-11-19T10:01:22;19.50;;;5.07;;
8139;SDS011;4111;50.972;7.072;2023-11-19T10:03:55;23.97;;;5.13;;
8139;SDS011;4111;50.972;7.072;2023-11-19T10:06:22;20.80;;;4.70;;
8139;SDS011;4111;50.972;7.072;2023-11-19T10:08:51;22.83;;;4.83;;
8139;SDS011;4111;50.972;7.072;2023-11-19T10:11:17;23.30;;;5.30;;
8139;SDS011;4111;50.972;7.072;2023-11-19T10:13:44;16.03;;;4.53;;
8139;SDS011;4111;50.972;7.072;2023-11-19T10:16:14;17.47;;;4.57;;
8139;SDS011;4111;50.972;7.072;2023-11-19T10:18:44;17.17;;;4.67;;
8139;SDS011;4111;50.972;7.072;2023-11-19T10:21:17;23.37;;;5.07;;
8139;SDS011;4111;50.972;7.072;2023-11-19T10:23:54;19.77;;;5.70;;
8139;SDS011;4111;50.972;7.072;2023-11-19T10:26:26;20.87;;;4.87;;
8139;SDS011;4111;50.972;7.072;2023-11-19T10:28:53;18.17;;;4.83;;
8139;SDS011;4111;50.972;7.072;2023-11-19T10:31:21;15.67;;;4.37;;
8139;SDS011;4111;50.972;7.072;2023-11-19T10:33:52;17.20;;;5.10;;
8139;SDS011;4111;50.972;7.072;2023-11-19T10:36:19;16.37;;;4.27;;
8139;SDS011;4111;50.972;7.072;2023-11-19T10:38:53;23.20;;;5.30;;
8139;SDS011;4111;50.972;7.072;2023-11-19T10:41:27;22.03;;;4.40;;
8139;SDS011;4111;50.972;7.072;2023-11-19T10:43:57;18.00;;;4.53;;
8139;SDS011;4111;50.972;7.072;2023-11-19T10:46:40;17.73;;;4.57;;
8139;SDS011;4111;50.972;7.072;2023-11-19T10:49:08;18.17;;;4.63;;
8139;SDS011;4111;50.972;7.072;2023-11-19T10:51:34;17.00;;;4.10;;
8139;SDS011;4111;50.972;7.072;2023-11-19T10:54:04;17.67;;;4.90;;
8139;SDS011;4111;50.972;7.072;2023-11-19T10:56:32;19.83;;;4.13;;
8139;SDS011;4111;50.972;7.072;2023-11-19T10:59:00;13.77;;;4.23;;
8139;SDS011;4111;50.972;7.072;2023-11-19T11:01:34;20.17;;;4.87;;
8139;SDS011;4111;50.972;7.072;2023-11-19T11:04:14;21.13;;;4.93;;
8139;SDS011;4111;50.972;7.072;2023-11-19T11:06:48;15.80;;;4.63;;
8139;SDS011;4111;50.972;7.072;2023-11-19T11:09:16;14.40;;;4.00;;
8139;SDS011;4111;50.972;7.072;2023-11-19T11:11:46;19.37;;;4.83;;
8139;SDS011;4111;50.972;7.072;2023-11-19T11:14:13;19.97;;;4.77;;
8139;SDS011;4111;50.972;7.072;2023-11-19T11:16:43;17.43;;;3.93;;
8139;SDS011;4111;50.972;7.072;2023-11-19T11:19:10;16.50;;;4.67;;
8139;SDS011;4111;50.972;7.072;2023-11-19T11:21:39;14.40;;;3.80;;
8139;SDS011;4111;50.972;7.072;2023-11-19T11:27:34;15.40;;;3.83;;
8139;SDS011;4111;50.972;7.072;2023-11-19T11:30:35;23.60;;;4.60;;
8139;SDS011;4111;50.972;7.072;2023-11-19T11:38:32;15.33;;;4.50;;
8139;SDS011;4111;50.972;7.072;2023-11-19T11:41:23;19.87;;;4.40;;
8139;SDS011;4111;50.972;7.072;2023-11-19T11:43:55;20.13;;;4.37;;
8139;SDS011;4111;50.972;7.072;2023-11-19T11:46:53;18.60;;;4.10;;
8139;SDS011;4111;50.972;7.072;2023-11-19T11:49:27;17.90;;;4.67;;
8139;SDS011;4111;50.972;7.072;2023-11-19T12:02:07;19.47;;;3.40;;
8139;SDS011;4111;50.972;7.072;2023-11-19T12:04:35;12.73;;;3.87;;
8139;SDS011;4111;50.972;7.072;2023-11-19T12:07:14;14.23;;;3.97;;
8139;SDS011;4111;50.972;7.072;2023-11-19T12:09:47;11.10;;;3.70;;
8139;SDS011;4111;50.972;7.072;2023-11-19T12:12:18;13.27;;;4.67;;
8139;SDS011;4111;50.972;7.072;2023-11-19T12:20:03;18.47;;;4.80;;
8139;SDS011;4111;50.972;7.072;2023-11-19T12:22:38;9.63;;;3.47;;
8139;SDS011;4111;50.972;7.072;2023-11-19T12:25:06;13.17;;;4.57;;
8139;SDS011;4111;50.972;7.072;2023-11-19T12:27:33;10.13;;;3.63;;
8139;SDS011;4111;50.972;7.072;2023-11-19T12:30:03;14.17;;;4.07;;
8139;SDS011;4111;50.972;7.072;2023-11-19T12:32:42;13.43;;;3.67;;
8139;SDS011;4111;50.972;7.072;2023-11-19T12:35:10;10.47;;;3.50;;
8139;SDS011;4111;50.972;7.072;2023-11-19T12:37:42;11.33;;;3.40;;
8139;SDS011;4111;50.972;7.072;2023-11-19T12:40:11;13.43;;;3.20;;
8139;SDS011;4111;50.972;7.072;2023-11-19T12:42:37;17.00;;;4.57;;
8139;SDS011;4111;50.972;7.072;2023-11-19T12:45:05;13.33;;;3.73;;
8139;SDS011;4111;50.972;7.072;2023-11-19T12:47:32;14.80;;;3.80;;
8139;SDS011;4111;50.972;7.072;2023-11-19T12:49:58;9.50;;;3.37;;
8139;SDS011;4111;50.972;7.072;2023-11-19T12:52:25;13.17;;;3.77;;
8139;SDS011;4111;50.972;7.072;2023-11-19T12:54:52;12.93;;;3.77;;
8139;SDS011;4111;50.972;7.072;2023-11-19T12:57:18;21.20;;;4.23;;
8139;SDS011;4111;50.972;7.072;2023-11-19T12:59:54;11.17;;;3.70;;
8139;SDS011;4111;50.972;7.072;2023-11-19T13:02:22;12.93;;;3.30;;
8139;SDS011;4111;50.972;7.072;2023-11-19T13:04:49;8.90;;;3.50;;
8139;SDS011;4111;50.972;7.072;2023-11-19T13:07:21;14.27;;;3.63;;
8139;SDS011;4111;50.972;7.072;2023-11-19T13:09:49;13.00;;;3.63;;
8139;SDS011;4111;50.972;7.072;2023-11-19T13:12:15;11.93;;;3.10;;
8139;SDS011;4111;50.972;7.072;2023-11-19T13:14:42;13.60;;;3.80;;
8139;SDS011;4111;50.972;7.072;2023-11-19T13:17:14;8.30;;;2.93;;
8139;SDS011;4111;50.972;7.072;2023-11-19T13:19:41;13.23;;;3.70;;
8139;SDS011;4111;50.972;7.072;2023-11-19T13:22:08;10.87;;;3.93;;
8139;SDS011;4111;50.972;7.072;2023-11-19T13:24:37;10.87;;;3.77;;
8139;SDS011;4111;50.972;7.072;2023-11-19T13:27:06;12.63;;;4.13;;
8139;SDS011;4111;50.972;7.072;2023-11-19T13:29:35;12.73;;;3.70;;
8139;SDS011;4111;50.972;7.072;2023-11-19T13:32:04;17.30;;;5.40;;
8139;SDS011;4111;50.972;7.072;2023-11-19T13:34:31;17.47;;;3.77;;
8139;SDS011;4111;50.972;7.072;2023-11-19T13:36:58;11.47;;;3.33;;
8139;SDS011;4111;50.972;7.072;2023-11-19T13:39:27;10.30;;;3.67;;
8139;SDS011;4111;50.972;7.072;2023-11-19T13:42:04;12.97;;;3.57;;
8139;SDS011;4111;50.972;7.072;2023-11-19T13:44:34;16.40;;;4.97;;
8139;SDS011;4111;50.972;7.072;2023-11-19T13:47:09;13.97;;;3.20;;
8139;SDS011;4111;50.972;7.072;2023-11-19T13:49:35;12.07;;;3.73;;
8139;SDS011;4111;50.972;7.072;2023-11-19T13:52:03;14.30;;;3.83;;
8139;SDS011;4111;50.972;7.072;2023-11-19T13:54:29;17.83;;;4.30;;
8139;SDS011;4111;50.972;7.072;2023-11-19T13:56:56;14.77;;;4.10;;
8139;SDS011;4111;50.972;7.072;2023-11-19T13:59:24;14.00;;;4.17;;
8139;SDS011;4111;50.972;7.072;2023-11-19T14:01:51;15.23;;;4.27;;
8139;SDS011;4111;50.972;7.072;2023-11-19T14:04:17;13.73;;;4.30;;
8139;SDS011;4111;50.972;7.072;2023-11-19T14:06:45;18.43;;;4.13;;
8139;SDS011;4111;50.972;7.072;2023-11-19T14:09:12;12.13;;;3.67;;
8139;SDS011;4111;50.972;7.072;2023-11-19T14:11:41;14.77;;;3.77;;
8139;SDS011;4111;50.972;7.072;2023-11-19T14:14:08;13.97;;;3.90;;
8139;SDS011;4111;50.972;7.072;2023-11-19T14:16:37;15.00;;;4.20;;
8139;SDS011;4111;50.972;7.072;2023-11-19T14:19:04;19.27;;;4.30;;
8139;SDS011;4111;50.972;7.072;2023-11-19T14:21:32;15.40;;;3.83;;
8139;SDS011;4111;50.972;7.072;2023-11-19T14:23:58;12.70;;;4.23;;
8139;SDS011;4111;50.972;7.072;2023-11-19T14:26:27;10.43;;;3.83;;
8139;SDS011;4111;50.972;7.072;2023-11-19T14:28:54;16.83;;;3.80;;
8139;SDS011;4111;50.972;7.072;2023-11-19T14:31:21;16.87;;;4.40;;
8139;SDS011;4111;50.972;7.072;2023-11-19T14:33:48;12.93;;;3.50;;
8139;SDS011;4111;50.972;7.072;2023-11-19T14:36:15;15.43;;;3.87;;
8139;SDS011;4111;50.972;7.072;2023-11-19T14:38:41;10.93;;;3.80;;
8139;SDS011;4111;50.972;7.072;2023-11-19T14:41:08;15.93;;;4.43;;
8139;SDS011;4111;50.972;7.072;2023-11-19T14:43:34;14.77;;;4.10;;
8139;SDS011;4111;50.972;7.072;2023-11-19T14:46:01;17.07;;;4.43;;
8139;SDS011;4111;50.972;7.072;2023-11-19T14:48:29;14.27;;;4.73;;
8139;SDS011;4111;50.972;7.072;2023-11-19T14:50:56;11.57;;;3.60;;
8139;SDS011;4111;50.972;7.072;2023-11-19T14:53:22;11.33;;;3.87;;
8139;SDS011;4111;50.972;7.072;2023-11-19T14:55:48;14.60;;;3.60;;
8139;SDS011;4111;50.972;7.072;2023-11-19T14:58:15;9.50;;;3.57;;
8139;SDS011;4111;50.972;7.072;2023-11-19T15:00:42;13.53;;;3.60;;
8139;SDS011;4111;50.972;7.072;2023-11-19T15:03:11;10.87;;;3.20;;
8139;SDS011;4111;50.972;7.072;2023-11-19T15:05:38;11.63;;;3.10;;
8139;SDS011;4111;50.972;7.072;2023-11-19T15:08:04;17.30;;;3.47;;
8139;SDS011;4111;50.972;7.072;2023-11-19T15:10:31;20.83;;;4.13;;
8139;SDS011;4111;50.972;7.072;2023-11-19T15:12:57;18.60;;;4.07;;
8139;SDS011;4111;50.972;7.072;2023-11-19T15:15:24;12.40;;;3.33;;
8139;SDS011;4111;50.972;7.072;2023-11-19T15:17:53;11.53;;;4.00;;
8139;SDS011;4111;50.972;7.072;2023-11-19T15:20:20;13.87;;;3.53;;
8139;SDS011;4111;50.972;7.072;2023-11-19T15:22:47;10.53;;;3.43;;
8139;SDS011;4111;50.972;7.072;2023-11-19T15:25:13;10.83;;;3.10;;
8139;SDS011;4111;50.972;7.072;2023-11-19T15:27:40;13.90;;;5.37;;
8139;SDS011;4111;50.972;7.072;2023-11-19T15:30:07;13.40;;;4.57;;
8139;SDS011;4111;50.972;7.072;2023-11-19T15:32:36;16.20;;;4.43;;
8139;SDS011;4111;50.972;7.072;2023-11-19T15:35:02;13.97;;;3.70;;
8139;SDS011;4111;50.972;7.072;2023-11-19T15:37:29;14.93;;;3.40;;
8139;SDS011;4111;50.972;7.072;2023-11-19T15:39:56;12.37;;;3.77;;
8139;SDS011;4111;50.972;7.072;2023-11-19T15:42:23;17.33;;;3.67;;
8139;SDS011;4111;50.972;7.072;2023-11-19T15:44:49;17.50;;;4.20;;
8139;SDS011;4111;50.972;7.072;2023-11-19T15:47:16;12.87;;;3.37;;
8139;SDS011;4111;50.972;7.072;2023-11-19T15:49:42;16.83;;;3.90;;
8139;SDS011;4111;50.972;7.072;2023-11-19T15:52:08;14.00;;;3.77;;
8139;SDS011;4111;50.972;7.072;2023-11-19T15:54:35;13.27;;;3.63;;
8139;SDS011;4111;50.972;7.072;2023-11-19T15:57:03;15.73;;;4.03;;
8139;SDS011;4111;50.972;7.072;2023-11-19T15:59:30;13.73;;;5.03;;
8139;SDS011;4111;50.972;7.072;2023-11-19T16:01:57;16.10;;;4.30;;
8139;SDS011;4111;50.972;7.072;2023-11-19T16:04:24;15.70;;;4.00;;